createdAt,value
2019-04-12T00:00:27.981Z,1027.26
2019-04-12T00:01:33.194Z,1027.26
2019-04-12T00:02:36.475Z,1027.25
2019-04-12T00:03:40.568Z,1027.28
2019-04-12T00:04:44.706Z,1027.27
2019-04-12T00:05:48.936Z,1027.29
2019-04-12T00:06:53.111Z,1027.29
2019-04-12T00:07:57.368Z,1027.29
2019-04-12T00:09:01.609Z,1027.27
2019-04-12T00:10:05.722Z,1027.28
2019-04-12T00:11:09.859Z,1027.28
2019-04-12T00:12:14.024Z,1027.27
2019-04-12T00:13:18.304Z,1027.30
2019-04-12T00:14:22.452Z,1027.31
2019-04-12T00:15:26.608Z,1027.30
2019-04-12T00:16:30.762Z,1027.31
2019-04-12T00:17:34.950Z,1027.30
2019-04-12T00:18:39.198Z,1027.31
2019-04-12T00:19:43.803Z,1027.28
2019-04-12T00:20:47.624Z,1027.28
2019-04-12T00:21:51.849Z,1027.25
2019-04-12T00:22:55.922Z,1027.27
2019-04-12T00:24:00.189Z,1027.27
2019-04-12T00:25:04.434Z,1027.27
2019-04-12T00:26:08.517Z,1027.28
2019-04-12T00:27:12.648Z,1027.28
2019-04-12T00:28:19.454Z,1027.27
2019-04-12T00:29:21.249Z,1027.27
2019-04-12T00:30:25.208Z,1027.27
2019-04-12T00:31:29.299Z,1027.28
2019-04-12T00:32:33.445Z,1027.27
2019-04-12T00:33:37.615Z,1027.26
2019-04-12T00:34:41.963Z,1027.23
2019-04-12T00:35:46.022Z,1027.21
2019-04-12T00:36:53.153Z,1027.19
2019-04-12T00:37:55.819Z,1027.20
2019-04-12T00:38:59.087Z,1027.17
2019-04-12T00:40:02.669Z,1027.17
2019-04-12T00:41:06.891Z,1027.18
2019-04-12T00:42:10.994Z,1027.17
2019-04-12T00:43:15.047Z,1027.18
2019-04-12T00:44:19.367Z,1027.19
2019-04-12T00:45:23.585Z,1027.20
2019-04-12T00:46:27.683Z,1027.19
2019-04-12T00:47:31.908Z,1027.21
2019-04-12T00:48:38.631Z,1027.19
2019-04-12T00:49:41.387Z,1027.22
2019-04-12T00:50:44.495Z,1027.23
2019-04-12T00:51:48.707Z,1027.26
2019-04-12T00:52:52.972Z,1027.26
2019-04-12T00:53:57.107Z,1027.26
2019-04-12T00:55:01.183Z,1027.26
2019-04-12T00:56:05.460Z,1027.27
2019-04-12T00:57:09.710Z,1027.27
2019-04-12T00:58:15.888Z,1027.27
2019-04-12T00:59:18.104Z,1027.27
2019-04-12T01:00:22.167Z,1027.28
2019-04-12T01:01:27.830Z,1027.28
2019-04-12T01:02:30.682Z,1027.30
2019-04-12T01:03:34.949Z,1027.28
2019-04-12T01:04:39.039Z,1027.27
2019-04-12T01:05:43.196Z,1027.24
2019-04-12T01:06:48.514Z,1027.23
2019-04-12T01:07:51.716Z,1027.24
2019-04-12T01:08:55.686Z,1027.25
2019-04-12T01:10:00.088Z,1027.24
2019-04-12T01:11:04.276Z,1027.26
2019-04-12T01:12:08.348Z,1027.24
2019-04-12T01:13:12.600Z,1027.22
2019-04-12T01:14:16.680Z,1027.25
2019-04-12T01:15:21.024Z,1027.23
2019-04-12T01:16:25.174Z,1027.23
2019-04-12T01:17:31.671Z,1027.25
2019-04-12T01:18:36.042Z,1027.23
2019-04-12T01:19:37.726Z,1027.22
2019-04-12T01:20:41.952Z,1027.21
2019-04-12T01:21:46.166Z,1027.21
2019-04-12T01:22:50.368Z,1027.22
2019-04-12T01:23:54.580Z,1027.24
2019-04-12T01:24:58.786Z,1027.24
2019-04-12T01:26:02.964Z,1027.22
2019-04-12T01:27:07.180Z,1027.22
2019-04-12T01:28:11.207Z,1027.21
2019-04-12T01:29:17.811Z,1027.21
2019-04-12T01:30:19.707Z,1027.21
2019-04-12T01:31:23.726Z,1027.20
2019-04-12T01:32:28.046Z,1027.22
2019-04-12T01:33:32.243Z,1027.21
2019-04-12T01:34:36.340Z,1027.18
2019-04-12T01:35:40.601Z,1027.18
2019-04-12T01:36:44.730Z,1027.20
2019-04-12T01:37:48.809Z,1027.21
2019-04-12T01:38:53.097Z,1027.20
2019-04-12T01:39:57.182Z,1027.20
2019-04-12T01:41:01.427Z,1027.21
2019-04-12T01:42:05.514Z,1027.23
2019-04-12T01:43:09.681Z,1027.23
2019-04-12T01:44:13.935Z,1027.20
2019-04-12T01:45:18.127Z,1027.22
2019-04-12T01:46:25.353Z,1027.23
2019-04-12T01:47:28.620Z,1027.26
2019-04-12T01:48:32.696Z,1027.23
2019-04-12T01:49:37.028Z,1027.22
2019-04-12T01:50:41.125Z,1027.21
2019-04-12T01:51:45.215Z,1027.20
2019-04-12T01:52:49.524Z,1027.19
2019-04-12T01:53:53.518Z,1027.16
2019-04-12T01:55:08.445Z,1027.17
2019-04-12T01:56:01.914Z,1027.14
2019-04-12T01:57:06.016Z,1027.13
2019-04-12T01:58:10.362Z,1027.14
2019-04-12T01:59:14.508Z,1027.15
2019-04-12T02:00:18.714Z,1027.12
2019-04-12T02:01:22.888Z,1027.14
2019-04-12T02:02:27.087Z,1027.14
2019-04-12T02:03:31.256Z,1027.14
2019-04-12T02:04:35.496Z,1027.13
2019-04-12T02:05:39.563Z,1027.14
2019-04-12T02:06:43.735Z,1027.13
2019-04-12T02:07:48.011Z,1027.12
2019-04-12T02:08:52.246Z,1027.11
2019-04-12T02:09:56.486Z,1027.11
2019-04-12T02:11:00.650Z,1027.12
2019-04-12T02:12:04.749Z,1027.11
2019-04-12T02:13:08.826Z,1027.12
2019-04-12T02:14:12.969Z,1027.15
2019-04-12T02:15:17.310Z,1027.15
2019-04-12T02:16:21.551Z,1027.13
2019-04-12T02:17:25.684Z,1027.12
2019-04-12T02:18:29.893Z,1027.14
2019-04-12T02:19:34.049Z,1027.17
2019-04-12T02:20:38.235Z,1027.16
2019-04-12T02:21:42.413Z,1027.14
2019-04-12T02:22:46.494Z,1027.15
2019-04-12T02:23:50.662Z,1027.18
2019-04-12T02:24:54.874Z,1027.16
2019-04-12T02:25:58.966Z,1027.15
2019-04-12T02:27:03.192Z,1027.13
2019-04-12T02:28:07.289Z,1027.15
2019-04-12T02:29:11.474Z,1027.14
2019-04-12T02:30:15.698Z,1027.14
2019-04-12T02:31:19.870Z,1027.14
2019-04-12T02:32:24.057Z,1027.13
2019-04-12T02:33:28.271Z,1027.12
2019-04-12T02:34:32.647Z,1027.12
2019-04-12T02:35:36.726Z,1027.11
2019-04-12T02:36:43.775Z,1027.09
2019-04-12T02:37:46.853Z,1027.08
2019-04-12T02:38:51.052Z,1027.07
2019-04-12T02:39:56.024Z,1027.09
2019-04-12T02:40:59.883Z,1027.13
2019-04-12T02:42:03.992Z,1027.06
2019-04-12T02:43:08.099Z,1027.07
2019-04-12T02:44:12.274Z,1027.08
2019-04-12T02:45:16.388Z,1027.07
2019-04-12T02:46:20.545Z,1027.07
2019-04-12T02:47:24.760Z,1027.07
2019-04-12T02:48:28.890Z,1027.03
2019-04-12T02:49:33.148Z,1027.04
2019-04-12T02:50:37.094Z,1027.05
2019-04-12T02:51:41.187Z,1027.05
2019-04-12T02:52:45.499Z,1027.06
2019-04-12T02:53:49.680Z,1027.05
2019-04-12T02:54:53.801Z,1027.05
2019-04-12T02:55:57.932Z,1027.04
2019-04-12T02:57:02.149Z,1027.07
2019-04-12T02:58:06.237Z,1027.03
2019-04-12T02:59:10.367Z,1027.07
2019-04-12T03:00:14.642Z,1027.07
2019-04-12T03:01:18.697Z,1027.07
2019-04-12T03:02:22.839Z,1027.09
2019-04-12T03:03:27.080Z,1027.12
2019-04-12T03:04:31.218Z,1027.11
2019-04-12T03:05:35.411Z,1027.09
2019-04-12T03:06:39.473Z,1027.11
2019-04-12T03:07:43.662Z,1027.11
2019-04-12T03:08:47.847Z,1027.13
2019-04-12T03:09:52.058Z,1027.14
2019-04-12T03:10:56.185Z,1027.16
2019-04-12T03:12:00.345Z,1027.16
2019-04-12T03:13:04.579Z,1027.17
2019-04-12T03:14:08.760Z,1027.21
2019-04-12T03:15:13.009Z,1027.22
2019-04-12T03:16:20.118Z,1027.22
2019-04-12T03:17:23.376Z,1027.20
2019-04-12T03:18:27.469Z,1027.24
2019-04-12T03:19:31.685Z,1027.22
2019-04-12T03:20:35.872Z,1027.21
2019-04-12T03:21:39.988Z,1027.22
2019-04-12T03:22:44.216Z,1027.23
2019-04-12T03:23:48.395Z,1027.26
2019-04-12T03:24:52.415Z,1027.25
2019-04-12T03:25:58.349Z,1027.26
2019-04-12T03:27:00.861Z,1027.23
2019-04-12T03:28:05.019Z,1027.24
2019-04-12T03:29:09.114Z,1027.22
2019-04-12T03:30:13.340Z,1027.26
2019-04-12T03:31:17.435Z,1027.26
2019-04-12T03:32:21.513Z,1027.29
2019-04-12T03:33:25.883Z,1027.31
2019-04-12T03:34:30.314Z,1027.31
2019-04-12T03:35:34.391Z,1027.30
2019-04-12T03:36:38.495Z,1027.30
2019-04-12T03:37:42.547Z,1027.30
2019-04-12T03:38:46.744Z,1027.33
2019-04-12T03:39:50.856Z,1027.31
2019-04-12T03:40:55.001Z,1027.31
2019-04-12T03:41:59.164Z,1027.32
2019-04-12T03:43:03.385Z,1027.30
2019-04-12T03:44:07.493Z,1027.31
2019-04-12T03:45:11.678Z,1027.29
2019-04-12T03:46:15.715Z,1027.28
2019-04-12T03:47:19.998Z,1027.26
2019-04-12T03:48:24.103Z,1027.27
2019-04-12T03:49:28.348Z,1027.32
2019-04-12T03:50:32.569Z,1027.31
2019-04-12T03:51:36.716Z,1027.32
2019-04-12T03:52:40.853Z,1027.32
2019-04-12T03:53:45.023Z,1027.32
2019-04-12T03:54:49.200Z,1027.31
2019-04-12T03:56:07.311Z,1027.29
2019-04-12T03:56:57.584Z,1027.28
2019-04-12T03:58:01.772Z,1027.28
2019-04-12T03:59:05.953Z,1027.27
2019-04-12T04:00:10.161Z,1027.28
2019-04-12T04:01:14.364Z,1027.28
2019-04-12T04:02:18.462Z,1027.27
2019-04-12T04:03:22.627Z,1027.26
2019-04-12T04:04:26.874Z,1027.27
2019-04-12T04:05:30.961Z,1027.25
2019-04-12T04:06:35.110Z,1027.25
2019-04-12T04:07:39.152Z,1027.25
2019-04-12T04:08:43.330Z,1027.26
2019-04-12T04:09:47.595Z,1027.25
2019-04-12T04:10:51.780Z,1027.23
2019-04-12T04:11:55.986Z,1027.23
2019-04-12T04:13:00.181Z,1027.23
2019-04-12T04:14:04.123Z,1027.25
2019-04-12T04:15:08.407Z,1027.25
2019-04-12T04:16:12.595Z,1027.25
2019-04-12T04:17:16.575Z,1027.24
2019-04-12T04:18:20.773Z,1027.22
2019-04-12T04:19:24.838Z,1027.23
2019-04-12T04:20:28.984Z,1027.25
2019-04-12T04:21:33.226Z,1027.21
2019-04-12T04:22:37.431Z,1027.23
2019-04-12T04:23:41.537Z,1027.22
2019-04-12T04:24:45.679Z,1027.23
2019-04-12T04:25:49.888Z,1027.24
2019-04-12T04:26:54.030Z,1027.24
2019-04-12T04:27:58.193Z,1027.23
2019-04-12T04:29:02.353Z,1027.24
2019-04-12T04:30:06.451Z,1027.22
2019-04-12T04:31:10.704Z,1027.22
2019-04-12T04:32:14.799Z,1027.23
2019-04-12T04:33:18.943Z,1027.25
2019-04-12T04:34:23.089Z,1027.26
2019-04-12T04:35:27.355Z,1027.26
2019-04-12T04:36:31.457Z,1027.28
2019-04-12T04:37:35.690Z,1027.28
2019-04-12T04:38:39.885Z,1027.28
2019-04-12T04:39:44.070Z,1027.27
2019-04-12T04:40:48.239Z,1027.27
2019-04-12T04:41:52.245Z,1027.29
2019-04-12T04:42:56.539Z,1027.28
2019-04-12T04:44:00.671Z,1027.29
2019-04-12T04:45:04.777Z,1027.29
2019-04-12T04:46:11.921Z,1027.30
2019-04-12T04:47:15.086Z,1027.28
2019-04-12T04:48:19.136Z,1027.28
2019-04-12T04:49:23.235Z,1027.29
2019-04-12T04:50:27.344Z,1027.30
2019-04-12T04:51:31.439Z,1027.31
2019-04-12T04:52:35.687Z,1027.32
2019-04-12T04:53:39.871Z,1027.29
2019-04-12T04:54:44.026Z,1027.28
2019-04-12T04:55:48.156Z,1027.27
2019-04-12T04:56:52.339Z,1027.29
2019-04-12T04:57:56.436Z,1027.27
2019-04-12T04:59:00.552Z,1027.29
2019-04-12T05:00:04.862Z,1027.30
2019-04-12T05:01:08.945Z,1027.29
2019-04-12T05:02:13.105Z,1027.28
2019-04-12T05:03:17.200Z,1027.30
2019-04-12T05:04:21.352Z,1027.33
2019-04-12T05:05:25.406Z,1027.31
2019-04-12T05:06:29.504Z,1027.32
2019-04-12T05:07:33.806Z,1027.35
2019-04-12T05:08:37.937Z,1027.35
2019-04-12T05:09:42.054Z,1027.37
2019-04-12T05:10:46.238Z,1027.37
2019-04-12T05:11:50.408Z,1027.36
2019-04-12T05:12:54.580Z,1027.36
2019-04-12T05:13:58.860Z,1027.37
2019-04-12T05:15:02.944Z,1027.36
2019-04-12T05:16:07.111Z,1027.34
2019-04-12T05:17:11.257Z,1027.38
2019-04-12T05:18:15.512Z,1027.41
2019-04-12T05:19:19.752Z,1027.42
2019-04-12T05:20:23.916Z,1027.41
2019-04-12T05:21:28.024Z,1027.43
2019-04-12T05:22:32.187Z,1027.45
2019-04-12T05:23:36.338Z,1027.45
2019-04-12T05:24:40.502Z,1027.45
2019-04-12T05:25:44.759Z,1027.46
2019-04-12T05:26:48.955Z,1027.47
2019-04-12T05:27:52.960Z,1027.47
2019-04-12T05:28:57.272Z,1027.49
2019-04-12T05:30:01.378Z,1027.50
2019-04-12T05:31:05.513Z,1027.52
2019-04-12T05:32:09.771Z,1027.53
2019-04-12T05:33:13.982Z,1027.53
2019-04-12T05:34:18.108Z,1027.54
2019-04-12T05:35:22.150Z,1027.55
2019-04-12T05:36:26.383Z,1027.58
2019-04-12T05:37:30.402Z,1027.59
2019-04-12T05:38:34.697Z,1027.59
2019-04-12T05:39:38.897Z,1027.57
2019-04-12T05:40:43.012Z,1027.59
2019-04-12T05:41:47.240Z,1027.59
2019-04-12T05:42:51.451Z,1027.58
2019-04-12T05:43:55.611Z,1027.57
2019-04-12T05:44:59.661Z,1027.57
2019-04-12T05:46:03.882Z,1027.57
2019-04-12T05:47:08.095Z,1027.55
2019-04-12T05:48:12.187Z,1027.57
2019-04-12T05:49:16.371Z,1027.58
2019-04-12T05:50:20.587Z,1027.59
2019-04-12T05:51:24.720Z,1027.57
2019-04-12T05:52:28.785Z,1027.55
2019-04-12T05:53:32.925Z,1027.55
2019-04-12T05:54:37.156Z,1027.53
2019-04-12T05:55:41.307Z,1027.50
2019-04-12T05:56:56.543Z,1027.51
2019-04-12T05:57:49.712Z,1027.46
2019-04-12T05:58:53.887Z,1027.46
2019-04-12T05:59:58.096Z,1027.47
2019-04-12T06:01:02.304Z,1027.43
2019-04-12T06:02:06.567Z,1027.46
2019-04-12T06:03:10.814Z,1027.45
2019-04-12T06:04:14.986Z,1027.45
2019-04-12T06:05:19.215Z,1027.43
2019-04-12T06:06:23.445Z,1027.41
2019-04-12T06:07:27.631Z,1027.37
2019-04-12T06:08:31.942Z,1027.34
2019-04-12T06:09:36.122Z,1027.34
2019-04-12T06:10:40.444Z,1027.34
2019-04-12T06:11:44.606Z,1027.32
2019-04-12T06:12:48.861Z,1027.35
2019-04-12T06:13:53.129Z,1027.33
2019-04-12T06:14:57.423Z,1027.33
2019-04-12T06:16:01.578Z,1027.35
2019-04-12T06:17:05.859Z,1027.31
2019-04-12T06:18:09.960Z,1027.30
2019-04-12T06:19:14.296Z,1027.31
2019-04-12T06:20:18.538Z,1027.32
2019-04-12T06:21:22.761Z,1027.30
2019-04-12T06:22:26.765Z,1027.32
2019-04-12T06:23:31.013Z,1027.34
2019-04-12T06:24:35.211Z,1027.34
2019-04-12T06:25:39.421Z,1027.34
2019-04-12T06:26:43.518Z,1027.33
2019-04-12T06:27:47.738Z,1027.36
2019-04-12T06:28:51.824Z,1027.36
2019-04-12T06:29:56.062Z,1027.38
2019-04-12T06:31:00.364Z,1027.40
2019-04-12T06:32:04.588Z,1027.43
2019-04-12T06:33:08.816Z,1027.44
2019-04-12T06:34:13.024Z,1027.48
2019-04-12T06:35:17.194Z,1027.51
2019-04-12T06:36:21.401Z,1027.52
2019-04-12T06:37:25.585Z,1027.51
2019-04-12T06:38:29.705Z,1027.53
2019-04-12T06:39:34.003Z,1027.56
2019-04-12T06:40:38.143Z,1027.54
2019-04-12T06:41:42.368Z,1027.54
2019-04-12T06:42:46.496Z,1027.52
2019-04-12T06:43:50.700Z,1027.52
2019-04-12T06:44:54.919Z,1027.52
2019-04-12T06:45:59.137Z,1027.52
2019-04-12T06:47:03.222Z,1027.54
2019-04-12T06:48:07.495Z,1027.53
2019-04-12T06:49:11.544Z,1027.54
2019-04-12T06:50:15.860Z,1027.54
2019-04-12T06:51:20.069Z,1027.55
2019-04-12T06:52:24.185Z,1027.56
2019-04-12T06:53:28.455Z,1027.53
2019-04-12T06:54:32.588Z,1027.50
2019-04-12T06:55:36.772Z,1027.51
2019-04-12T06:56:40.977Z,1027.48
2019-04-12T06:57:45.237Z,1027.46
2019-04-12T06:58:49.379Z,1027.46
2019-04-12T06:59:53.563Z,1027.44
2019-04-12T07:00:57.848Z,1027.46
2019-04-12T07:02:02.042Z,1027.44
2019-04-12T07:03:06.155Z,1027.46
2019-04-12T07:04:10.403Z,1027.44
2019-04-12T07:05:14.564Z,1027.46
2019-04-12T07:06:18.829Z,1027.45
2019-04-12T07:07:22.934Z,1027.45
2019-04-12T07:08:27.128Z,1027.46
2019-04-12T07:09:31.382Z,1027.43
2019-04-12T07:10:35.517Z,1027.46
2019-04-12T07:11:39.764Z,1027.42
2019-04-12T07:12:43.940Z,1027.38
2019-04-12T07:13:48.052Z,1027.38
2019-04-12T07:14:52.299Z,1027.35
2019-04-12T07:15:56.488Z,1027.37
2019-04-12T07:17:00.746Z,1027.37
2019-04-12T07:18:04.973Z,1027.34
2019-04-12T07:19:09.138Z,1027.37
2019-04-12T07:20:13.312Z,1027.38
2019-04-12T07:21:17.538Z,1027.34
2019-04-12T07:22:21.794Z,1027.34
2019-04-12T07:23:25.985Z,1027.36
2019-04-12T07:24:30.207Z,1027.37
2019-04-12T07:25:34.416Z,1027.35
2019-04-12T07:26:38.569Z,1027.30
2019-04-12T07:27:42.739Z,1027.36
2019-04-12T07:28:46.922Z,1027.34
2019-04-12T07:29:51.103Z,1027.32
2019-04-12T07:30:57.048Z,1027.33
2019-04-12T07:31:59.591Z,1027.31
2019-04-12T07:33:03.750Z,1027.30
2019-04-12T07:34:07.989Z,1027.30
2019-04-12T07:35:12.092Z,1027.35
2019-04-12T07:36:16.265Z,1027.31
2019-04-12T07:37:20.539Z,1027.33
2019-04-12T07:38:24.627Z,1027.33
2019-04-12T07:39:28.787Z,1027.33
2019-04-12T07:40:32.969Z,1027.37
2019-04-12T07:41:37.130Z,1027.41
2019-04-12T07:42:41.297Z,1027.36
2019-04-12T07:43:45.536Z,1027.41
2019-04-12T07:44:49.656Z,1027.37
2019-04-12T07:45:53.814Z,1027.39
2019-04-12T07:46:57.978Z,1027.39
2019-04-12T07:48:02.270Z,1027.43
2019-04-12T07:49:06.396Z,1027.43
2019-04-12T07:50:10.557Z,1027.42
2019-04-12T07:51:14.739Z,1027.45
2019-04-12T07:52:18.906Z,1027.41
2019-04-12T07:53:23.099Z,1027.40
2019-04-12T07:54:30.271Z,1027.42
2019-04-12T07:55:33.442Z,1027.38
2019-04-12T07:56:37.591Z,1027.41
2019-04-12T07:57:47.265Z,1027.44
2019-04-12T07:58:51.944Z,1027.45
2019-04-12T07:59:54.790Z,1027.41
2019-04-12T08:00:58.998Z,1027.35
2019-04-12T08:02:03.095Z,1027.33
2019-04-12T08:03:07.404Z,1027.38
2019-04-12T08:04:11.489Z,1027.37
2019-04-12T08:05:15.780Z,1027.40
2019-04-12T08:06:20.007Z,1027.35
2019-04-12T08:07:24.186Z,1027.35
2019-04-12T08:08:28.481Z,1027.35
2019-04-12T08:09:32.687Z,1027.36
2019-04-12T08:10:36.851Z,1027.38
2019-04-12T08:11:41.047Z,1027.37
2019-04-12T08:12:45.317Z,1027.41
2019-04-12T08:13:49.473Z,1027.45
2019-04-12T08:14:53.764Z,1027.38
2019-04-12T08:15:57.910Z,1027.41
2019-04-12T08:17:02.145Z,1027.39
2019-04-12T08:18:06.429Z,1027.39
2019-04-12T08:19:10.533Z,1027.39
2019-04-12T08:20:14.748Z,1027.38
2019-04-12T08:21:18.958Z,1027.37
2019-04-12T08:22:23.032Z,1027.36
2019-04-12T08:23:27.306Z,1027.38
2019-04-12T08:24:31.512Z,1027.38
2019-04-12T08:25:35.758Z,1027.32
2019-04-12T08:26:39.924Z,1027.33
2019-04-12T08:27:44.194Z,1027.34
2019-04-12T08:28:48.458Z,1027.36
2019-04-12T08:29:52.481Z,1027.33
2019-04-12T08:30:56.787Z,1027.26
2019-04-12T08:32:01.041Z,1027.25
2019-04-12T08:33:05.273Z,1027.29
2019-04-12T08:34:09.468Z,1027.28
2019-04-12T08:35:13.572Z,1027.26
2019-04-12T08:36:17.893Z,1027.29
2019-04-12T08:37:21.975Z,1027.28
2019-04-12T08:38:26.320Z,1027.29
2019-04-12T08:39:33.445Z,1027.28
2019-04-12T08:40:36.653Z,1027.25
2019-04-12T08:41:40.928Z,1027.25
2019-04-12T08:42:45.255Z,1027.23
2019-04-12T08:43:53.800Z,1027.27
2019-04-12T08:44:53.630Z,1027.22
2019-04-12T08:45:57.886Z,1027.21
2019-04-12T08:47:02.217Z,1027.21
2019-04-12T08:48:06.445Z,1027.19
2019-04-12T08:49:10.620Z,1027.20
2019-04-12T08:50:14.765Z,1027.16
2019-04-12T08:51:22.372Z,1027.18
2019-04-12T08:52:23.308Z,1027.18
2019-04-12T08:53:27.463Z,1027.17
2019-04-12T08:54:31.648Z,1027.16
2019-04-12T08:55:35.944Z,1027.18
2019-04-12T08:56:40.142Z,1027.16
2019-04-12T08:57:44.389Z,1027.15
2019-04-12T08:58:48.520Z,1027.16
2019-04-12T08:59:52.885Z,1027.11
2019-04-12T09:00:57.014Z,1027.09
2019-04-12T09:02:01.216Z,1027.10
2019-04-12T09:03:05.525Z,1027.07
2019-04-12T09:04:09.626Z,1027.10
2019-04-12T09:05:13.893Z,1027.02
2019-04-12T09:06:18.206Z,1027.08
2019-04-12T09:07:22.473Z,1027.10
2019-04-12T09:08:26.700Z,1027.07
2019-04-12T09:09:31.006Z,1027.06
2019-04-12T09:10:35.835Z,1027.03
2019-04-12T09:11:39.476Z,1027.03
2019-04-12T09:12:43.667Z,1027.00
2019-04-12T09:13:47.789Z,1027.05
2019-04-12T09:14:52.009Z,1026.97
2019-04-12T09:15:58.542Z,1026.93
2019-04-12T09:17:00.615Z,1026.93
2019-04-12T09:18:04.843Z,1026.96
2019-04-12T09:19:09.074Z,1026.97
2019-04-12T09:20:13.278Z,1026.98
2019-04-12T09:21:17.569Z,1026.98
2019-04-12T09:22:21.847Z,1027.00
2019-04-12T09:23:26.035Z,1027.02
2019-04-12T09:24:30.321Z,1027.03
2019-04-12T09:25:34.455Z,1027.05
2019-04-12T09:26:38.654Z,1027.02
2019-04-12T09:27:42.814Z,1027.05
2019-04-12T09:28:46.986Z,1027.07
2019-04-12T09:29:51.187Z,1027.07
2019-04-12T09:30:55.396Z,1027.08
2019-04-12T09:31:59.784Z,1027.03
2019-04-12T09:33:04.136Z,1027.04
2019-04-12T09:34:16.893Z,1027.02
2019-04-12T09:35:12.341Z,1027.00
2019-04-12T09:36:16.578Z,1027.02
2019-04-12T09:37:20.720Z,1026.99
2019-04-12T09:38:24.945Z,1027.01
2019-04-12T09:39:29.154Z,1027.00
2019-04-12T09:40:33.362Z,1027.00
2019-04-12T09:41:37.451Z,1026.97
2019-04-12T09:42:41.768Z,1026.99
2019-04-12T09:43:46.003Z,1026.99
2019-04-12T09:44:50.195Z,1027.00
2019-04-12T09:45:54.488Z,1027.02
2019-04-12T09:46:58.624Z,1027.04
2019-04-12T09:48:02.805Z,1027.05
2019-04-12T09:49:07.055Z,1027.06
2019-04-12T09:50:11.290Z,1027.06
2019-04-12T09:51:15.655Z,1027.05
2019-04-12T09:52:19.835Z,1027.06
2019-04-12T09:53:23.968Z,1027.03
2019-04-12T09:54:28.251Z,1027.09
2019-04-12T09:55:32.427Z,1027.08
2019-04-12T09:56:36.636Z,1027.05
2019-04-12T09:57:40.900Z,1027.06
2019-04-12T09:58:45.151Z,1027.04
2019-04-12T09:59:49.399Z,1027.03
2019-04-12T10:00:53.562Z,1027.01
2019-04-12T10:01:57.830Z,1026.99
2019-04-12T10:03:01.968Z,1026.97
2019-04-12T10:04:06.293Z,1027.01
2019-04-12T10:05:10.577Z,1026.94
2019-04-12T10:06:14.787Z,1026.96
2019-04-12T10:07:18.975Z,1026.95
2019-04-12T10:08:23.268Z,1026.98
2019-04-12T10:09:28.395Z,1027.02
2019-04-12T10:10:31.734Z,1027.01
2019-04-12T10:11:36.002Z,1027.02
2019-04-12T10:12:40.244Z,1027.02
2019-04-12T10:13:44.371Z,1027.04
2019-04-12T10:14:48.663Z,1027.04
2019-04-12T10:15:52.888Z,1027.05
2019-04-12T10:16:57.157Z,1027.07
2019-04-12T10:18:01.713Z,1027.09
2019-04-12T10:19:05.681Z,1027.12
2019-04-12T10:20:09.916Z,1027.12
2019-04-12T10:21:14.059Z,1027.13
2019-04-12T10:22:18.383Z,1027.14
2019-04-12T10:23:22.601Z,1027.12
2019-04-12T10:24:26.952Z,1027.07
2019-04-12T10:25:31.040Z,1027.01
2019-04-12T10:26:35.206Z,1027.02
2019-04-12T10:27:39.453Z,1026.99
2019-04-12T10:28:50.348Z,1026.95
2019-04-12T10:29:48.038Z,1026.97
2019-04-12T10:30:52.223Z,1027.00
2019-04-12T10:31:56.499Z,1026.99
2019-04-12T10:33:00.758Z,1027.01
2019-04-12T10:34:04.975Z,1027.02
2019-04-12T10:35:09.328Z,1027.03
2019-04-12T10:36:13.447Z,1027.03
2019-04-12T10:37:17.585Z,1027.06
2019-04-12T10:38:21.943Z,1027.05
2019-04-12T10:39:26.188Z,1027.03
2019-04-12T10:40:30.334Z,1027.03
2019-04-12T10:41:34.519Z,1027.00
2019-04-12T10:42:38.831Z,1026.98
2019-04-12T10:43:42.965Z,1026.99
2019-04-12T10:44:47.188Z,1026.98
2019-04-12T10:45:51.407Z,1027.00
2019-04-12T10:46:55.637Z,1026.98
2019-04-12T10:47:59.875Z,1026.96
2019-04-12T10:49:04.075Z,1026.98
2019-04-12T10:50:08.171Z,1026.98
2019-04-12T10:51:12.507Z,1026.92
2019-04-12T10:52:16.639Z,1026.93
2019-04-12T10:53:20.955Z,1026.92
2019-04-12T10:54:25.188Z,1026.91
2019-04-12T10:55:29.473Z,1026.88
2019-04-12T10:56:33.684Z,1026.88
2019-04-12T10:57:37.806Z,1026.88
2019-04-12T10:58:42.119Z,1026.88
2019-04-12T10:59:46.278Z,1026.86
2019-04-12T11:00:50.513Z,1026.88
2019-04-12T11:01:54.725Z,1026.83
2019-04-12T11:02:58.989Z,1026.83
2019-04-12T11:04:03.236Z,1026.80
2019-04-12T11:05:07.461Z,1026.77
2019-04-12T11:06:11.609Z,1026.75
2019-04-12T11:07:18.888Z,1026.73
2019-04-12T11:08:22.300Z,1026.69
2019-04-12T11:09:26.384Z,1026.66
2019-04-12T11:10:30.607Z,1026.63
2019-04-12T11:11:34.898Z,1026.62
2019-04-12T11:12:39.150Z,1026.57
2019-04-12T11:13:43.279Z,1026.55
2019-04-12T11:14:47.589Z,1026.55
2019-04-12T11:15:51.798Z,1026.62
2019-04-12T11:16:56.068Z,1026.55
2019-04-12T11:18:00.329Z,1026.59
2019-04-12T11:19:04.622Z,1026.60
2019-04-12T11:20:08.773Z,1026.56
2019-04-12T11:21:13.039Z,1026.57
2019-04-12T11:22:17.278Z,1026.58
2019-04-12T11:23:21.437Z,1026.61
2019-04-12T11:24:25.756Z,1026.59
2019-04-12T11:25:30.007Z,1026.59
2019-04-12T11:26:34.139Z,1026.61
2019-04-12T11:27:38.295Z,1026.62
2019-04-12T11:28:42.583Z,1026.64
2019-04-12T11:29:46.829Z,1026.65
2019-04-12T11:30:50.960Z,1026.63
2019-04-12T11:31:55.197Z,1026.65
2019-04-12T11:32:59.440Z,1026.64
2019-04-12T11:34:03.747Z,1026.64
2019-04-12T11:35:10.346Z,1026.64
2019-04-12T11:36:12.271Z,1026.66
2019-04-12T11:37:16.525Z,1026.73
2019-04-12T11:38:20.668Z,1026.68
2019-04-12T11:39:24.969Z,1026.66
2019-04-12T11:40:29.186Z,1026.69
2019-04-12T11:41:33.521Z,1026.65
2019-04-12T11:42:37.711Z,1026.65
2019-04-12T11:43:41.858Z,1026.64
2019-04-12T11:44:46.166Z,1026.66
2019-04-12T11:45:50.413Z,1026.66
2019-04-12T11:46:54.626Z,1026.69
2019-04-12T11:47:58.856Z,1026.67
2019-04-12T11:49:02.958Z,1026.65
2019-04-12T11:50:07.268Z,1026.65
2019-04-12T11:51:11.615Z,1026.62
2019-04-12T11:52:15.843Z,1026.56
2019-04-12T11:53:20.079Z,1026.62
2019-04-12T11:54:24.375Z,1026.66
2019-04-12T11:55:28.603Z,1026.66
2019-04-12T11:56:32.757Z,1026.67
2019-04-12T11:57:37.954Z,1026.66
2019-04-12T11:58:48.031Z,1026.68
2019-04-12T11:59:45.531Z,1026.68
2019-04-12T12:00:49.787Z,1026.66
2019-04-12T12:01:53.851Z,1026.64
2019-04-12T12:02:58.178Z,1026.63
2019-04-12T12:04:02.413Z,1026.62
2019-04-12T12:05:06.653Z,1026.63
2019-04-12T12:06:10.905Z,1026.56
2019-04-12T12:07:15.157Z,1026.58
2019-04-12T12:08:19.346Z,1026.56
2019-04-12T12:09:23.653Z,1026.57
2019-04-12T12:10:27.934Z,1026.58
2019-04-12T12:11:32.151Z,1026.60
2019-04-12T12:12:36.422Z,1026.58
2019-04-12T12:13:40.650Z,1026.57
2019-04-12T12:14:44.909Z,1026.60
2019-04-12T12:15:49.197Z,1026.60
2019-04-12T12:16:53.389Z,1026.58
2019-04-12T12:17:57.538Z,1026.59
2019-04-12T12:19:01.838Z,1026.56
2019-04-12T12:20:06.039Z,1026.54
2019-04-12T12:21:10.292Z,1026.51
2019-04-12T12:22:16.299Z,1026.50
2019-04-12T12:23:18.782Z,1026.50
2019-04-12T12:24:23.191Z,1026.42
2019-04-12T12:25:27.441Z,1026.50
2019-04-12T12:26:31.695Z,1026.47
2019-04-12T12:27:35.787Z,1026.50
2019-04-12T12:28:40.135Z,1026.49
2019-04-12T12:29:44.315Z,1026.46
2019-04-12T12:30:48.645Z,1026.45
2019-04-12T12:31:52.837Z,1026.48
2019-04-12T12:32:57.063Z,1026.47
2019-04-12T12:34:01.359Z,1026.46
2019-04-12T12:35:05.653Z,1026.48
2019-04-12T12:36:09.902Z,1026.45
2019-04-12T12:37:14.123Z,1026.39
2019-04-12T12:38:18.365Z,1026.40
2019-04-12T12:39:22.628Z,1026.41
2019-04-12T12:40:26.823Z,1026.41
2019-04-12T12:41:31.177Z,1026.32
2019-04-12T12:42:35.335Z,1026.35
2019-04-12T12:43:39.647Z,1026.35
2019-04-12T12:44:43.926Z,1026.36
2019-04-12T12:45:48.184Z,1026.36
2019-04-12T12:46:52.467Z,1026.38
2019-04-12T12:47:56.823Z,1026.37
2019-04-12T12:49:01.052Z,1026.36
2019-04-12T12:50:05.308Z,1026.34
2019-04-12T12:51:09.584Z,1026.34
2019-04-12T12:52:13.803Z,1026.29
2019-04-12T12:53:18.108Z,1026.27
2019-04-12T12:54:22.240Z,1026.24
2019-04-12T12:55:26.576Z,1026.21
2019-04-12T12:56:30.863Z,1026.20